sensor_id;sensor_type;location;lat;lon;timestamp;temperature;humidity
73149;SHT30;61346;48.930;2.266;2022-09-03T00:00:52;22.69;59.35
73149;SHT30;61346;48.930;2.266;2022-09-03T00:03:28;22.69;59.40
73149;SHT30;61346;48.930;2.266;2022-09-03T00:06:02;22.68;59.44
73149;SHT30;61346;48.930;2.266;2022-09-03T00:09:11;22.69;59.57
73149;SHT30;61346;48.930;2.266;2022-09-03T00:14:23;22.68;59.63
73149;SHT30;61346;48.930;2.266;2022-09-03T00:16:56;22.69;59.66
73149;SHT30;61346;48.930;2.266;2022-09-03T00:19:31;22.69;59.73
73149;SHT30;61346;48.930;2.266;2022-09-03T00:22:04;22.67;59.64
73149;SHT30;61346;48.930;2.266;2022-09-03T00:24:35;22.67;59.76
73149;SHT30;61346;48.930;2.266;2022-09-03T00:27:05;22.65;59.79
73149;SHT30;61346;48.930;2.266;2022-09-03T00:29:39;22.65;59.83
73149;SHT30;61346;48.930;2.266;2022-09-03T00:32:43;22.64;59.90
73149;SHT30;61346;48.930;2.266;2022-09-03T00:35:15;22.64;59.90
73149;SHT30;61346;48.930;2.266;2022-09-03T00:37:43;22.61;59.98
73149;SHT30;61346;48.930;2.266;2022-09-03T00:40:30;22.61;60.05
73149;SHT30;61346;48.930;2.266;2022-09-03T00:51:02;22.54;60.19
73149;SHT30;61346;48.930;2.266;2022-09-03T00:53:43;22.52;60.24
73149;SHT30;61346;48.930;2.266;2022-09-03T00:56:24;22.52;60.35
73149;SHT30;61346;48.930;2.266;2022-09-03T00:59:13;22.52;60.44
73149;SHT30;61346;48.930;2.266;2022-09-03T01:04:53;22.47;60.51
73149;SHT30;61346;48.930;2.266;2022-09-03T01:07:30;22.44;60.59
73149;SHT30;61346;48.930;2.266;2022-09-03T01:10:17;22.44;60.64
73149;SHT30;61346;48.930;2.266;2022-09-03T01:13:01;22.45;60.67
73149;SHT30;61346;48.930;2.266;2022-09-03T01:15:40;22.40;60.78
73149;SHT30;61346;48.930;2.266;2022-09-03T01:18:15;22.40;60.88
73149;SHT30;61346;48.930;2.266;2022-09-03T01:20:51;22.36;60.99
73149;SHT30;61346;48.930;2.266;2022-09-03T01:23:40;22.37;61.02
73149;SHT30;61346;48.930;2.266;2022-09-03T01:26:21;22.36;61.13
73149;SHT30;61346;48.930;2.266;2022-09-03T01:39:40;22.36;61.41
73149;SHT30;61346;48.930;2.266;2022-09-03T01:47:52;22.33;61.50
73149;SHT30;61346;48.930;2.266;2022-09-03T01:50:45;22.33;61.54
73149;SHT30;61346;48.930;2.266;2022-09-03T01:55:50;22.33;61.61
73149;SHT30;61346;48.930;2.266;2022-09-03T01:58:29;22.31;61.72
73149;SHT30;61346;48.930;2.266;2022-09-03T02:01:00;22.29;61.71
73149;SHT30;61346;48.930;2.266;2022-09-03T02:03:37;22.27;61.78
73149;SHT30;61346;48.930;2.266;2022-09-03T02:06:03;22.29;61.84
73149;SHT30;61346;48.930;2.266;2022-09-03T02:08:31;22.27;61.87
73149;SHT30;61346;48.930;2.266;2022-09-03T02:10:57;22.27;61.89
73149;SHT30;61346;48.930;2.266;2022-09-03T02:13:40;22.24;61.94
73149;SHT30;61346;48.930;2.266;2022-09-03T02:16:13;22.21;62.00
73149;SHT30;61346;48.930;2.266;2022-09-03T02:18:45;22.18;62.07
73149;SHT30;61346;48.930;2.266;2022-09-03T02:21:17;22.21;62.13
73149;SHT30;61346;48.930;2.266;2022-09-03T02:23:44;22.20;62.17
73149;SHT30;61346;48.930;2.266;2022-09-03T02:26:11;22.16;62.22
73149;SHT30;61346;48.930;2.266;2022-09-03T02:28:37;22.18;62.26
73149;SHT30;61346;48.930;2.266;2022-09-03T02:31:03;22.13;62.37
73149;SHT30;61346;48.930;2.266;2022-09-03T02:33:30;22.14;62.39
73149;SHT30;61346;48.930;2.266;2022-09-03T02:35:56;22.12;62.43
73149;SHT30;61346;48.930;2.266;2022-09-03T02:38:24;22.14;62.49
73149;SHT30;61346;48.930;2.266;2022-09-03T02:40:50;22.12;62.50
73149;SHT30;61346;48.930;2.266;2022-09-03T02:46:21;22.12;62.61
73149;SHT30;61346;48.930;2.266;2022-09-03T02:48:47;22.10;62.64
73149;SHT30;61346;48.930;2.266;2022-09-03T02:51:13;22.10;62.69
73149;SHT30;61346;48.930;2.266;2022-09-03T02:53:38;22.12;62.79
73149;SHT30;61346;48.930;2.266;2022-09-03T02:56:04;22.09;62.87
73149;SHT30;61346;48.930;2.266;2022-09-03T02:58:30;22.04;62.81
73149;SHT30;61346;48.930;2.266;2022-09-03T03:00:58;22.04;62.86
73149;SHT30;61346;48.930;2.266;2022-09-03T03:03:23;22.04;62.93
73149;SHT30;61346;48.930;2.266;2022-09-03T03:05:54;21.97;63.01
73149;SHT30;61346;48.930;2.266;2022-09-03T03:08:23;21.94;63.08
73149;SHT30;61346;48.930;2.266;2022-09-03T03:10:54;21.92;63.13
73149;SHT30;61346;48.930;2.266;2022-09-03T03:13:23;21.90;63.35
73149;SHT30;61346;48.930;2.266;2022-09-03T03:15:49;21.88;63.40
73149;SHT30;61346;48.930;2.266;2022-09-03T03:18:14;21.86;63.43
73149;SHT30;61346;48.930;2.266;2022-09-03T03:20:42;21.85;63.52
73149;SHT30;61346;48.930;2.266;2022-09-03T03:23:08;21.81;63.60
73149;SHT30;61346;48.930;2.266;2022-09-03T03:25:35;21.76;63.66
73149;SHT30;61346;48.930;2.266;2022-09-03T03:28:01;21.74;63.68
73149;SHT30;61346;48.930;2.266;2022-09-03T03:30:27;21.71;63.74
73149;SHT30;61346;48.930;2.266;2022-09-03T03:32:53;21.76;63.80
73149;SHT30;61346;48.930;2.266;2022-09-03T03:35:19;21.72;63.80
73149;SHT30;61346;48.930;2.266;2022-09-03T03:37:44;21.74;63.90
73149;SHT30;61346;48.930;2.266;2022-09-03T03:40:10;21.76;63.84
73149;SHT30;61346;48.930;2.266;2022-09-03T03:42:36;21.76;63.89
73149;SHT30;61346;48.930;2.266;2022-09-03T03:45:03;21.72;63.91
73149;SHT30;61346;48.930;2.266;2022-09-03T03:47:28;21.74;63.94
73149;SHT30;61346;48.930;2.266;2022-09-03T03:49:57;21.72;63.99
73149;SHT30;61346;48.930;2.266;2022-09-03T03:52:23;21.71;64.05
73149;SHT30;61346;48.930;2.266;2022-09-03T03:54:50;21.66;64.14
73149;SHT30;61346;48.930;2.266;2022-09-03T03:57:16;21.68;64.19
73149;SHT30;61346;48.930;2.266;2022-09-03T03:59:41;21.68;64.25
73149;SHT30;61346;48.930;2.266;2022-09-03T04:02:07;21.65;64.28
73149;SHT30;61346;48.930;2.266;2022-09-03T04:04:32;21.63;64.49
73149;SHT30;61346;48.930;2.266;2022-09-03T04:06:57;21.62;64.48
73149;SHT30;61346;48.930;2.266;2022-09-03T04:09:23;21.58;64.55
73149;SHT30;61346;48.930;2.266;2022-09-03T04:11:48;21.58;64.65
73149;SHT30;61346;48.930;2.266;2022-09-03T04:14:15;21.55;64.68
73149;SHT30;61346;48.930;2.266;2022-09-03T04:16:42;21.52;64.76
73149;SHT30;61346;48.930;2.266;2022-09-03T04:19:07;21.48;64.84
73149;SHT30;61346;48.930;2.266;2022-09-03T04:21:33;21.49;64.88
73149;SHT30;61346;48.930;2.266;2022-09-03T04:23:58;21.47;64.89
73149;SHT30;61346;48.930;2.266;2022-09-03T04:26:28;21.45;64.95
73149;SHT30;61346;48.930;2.266;2022-09-03T04:29:02;21.47;65.05
73149;SHT30;61346;48.930;2.266;2022-09-03T04:31:28;21.44;65.17
73149;SHT30;61346;48.930;2.266;2022-09-03T04:33:53;21.45;65.17
73149;SHT30;61346;48.930;2.266;2022-09-03T04:36:21;21.45;65.34
73149;SHT30;61346;48.930;2.266;2022-09-03T04:38:48;21.45;65.32
73149;SHT30;61346;48.930;2.266;2022-09-03T04:41:17;21.42;65.34
73149;SHT30;61346;48.930;2.266;2022-09-03T04:43:43;21.45;65.34
73149;SHT30;61346;48.930;2.266;2022-09-03T04:46:10;21.44;65.39
73149;SHT30;61346;48.930;2.266;2022-09-03T04:48:36;21.45;65.42
73149;SHT30;61346;48.930;2.266;2022-09-03T04:51:09;21.44;65.43
73149;SHT30;61346;48.930;2.266;2022-09-03T04:53:38;21.41;65.43
73149;SHT30;61346;48.930;2.266;2022-09-03T04:56:16;21.38;65.51
73149;SHT30;61346;48.930;2.266;2022-09-03T04:58:42;21.35;65.53
73149;SHT30;61346;48.930;2.266;2022-09-03T05:01:20;21.38;65.57
73149;SHT30;61346;48.930;2.266;2022-09-03T05:03:46;21.34;65.56
73149;SHT30;61346;48.930;2.266;2022-09-03T05:06:12;21.34;65.66
73149;SHT30;61346;48.930;2.266;2022-09-03T05:08:38;21.31;65.69
73149;SHT30;61346;48.930;2.266;2022-09-03T05:11:06;21.34;65.71
73149;SHT30;61346;48.930;2.266;2022-09-03T05:13:33;21.32;65.73
73149;SHT30;61346;48.930;2.266;2022-09-03T05:16:03;21.30;65.82
73149;SHT30;61346;48.930;2.266;2022-09-03T05:18:30;21.32;65.82
73149;SHT30;61346;48.930;2.266;2022-09-03T05:21:00;21.32;65.81
73149;SHT30;61346;48.930;2.266;2022-09-03T05:23:27;21.30;65.84
73149;SHT30;61346;48.930;2.266;2022-09-03T05:26:00;21.30;66.01
73149;SHT30;61346;48.930;2.266;2022-09-03T05:28:27;21.26;65.97
73149;SHT30;61346;48.930;2.266;2022-09-03T05:33:23;21.28;66.10
73149;SHT30;61346;48.930;2.266;2022-09-03T05:35:49;21.26;66.16
73149;SHT30;61346;48.930;2.266;2022-09-03T05:38:14;21.31;66.23
73149;SHT30;61346;48.930;2.266;2022-09-03T05:40:41;21.30;66.23
73149;SHT30;61346;48.930;2.266;2022-09-03T05:43:06;21.34;66.26
73149;SHT30;61346;48.930;2.266;2022-09-03T05:45:31;21.32;66.27
73149;SHT30;61346;48.930;2.266;2022-09-03T05:47:59;21.34;66.37
73149;SHT30;61346;48.930;2.266;2022-09-03T05:50:25;21.37;66.31
73149;SHT30;61346;48.930;2.266;2022-09-03T05:52:51;21.39;66.34
73149;SHT30;61346;48.930;2.266;2022-09-03T05:55:18;21.38;66.45
73149;SHT30;61346;48.930;2.266;2022-09-03T05:57:43;21.41;66.46
73149;SHT30;61346;48.930;2.266;2022-09-03T06:00:10;21.48;66.47
73149;SHT30;61346;48.930;2.266;2022-09-03T06:02:36;21.49;66.41
73149;SHT30;61346;48.930;2.266;2022-09-03T06:05:01;21.49;66.36
73149;SHT30;61346;48.930;2.266;2022-09-03T06:07:29;21.54;66.43
73149;SHT30;61346;48.930;2.266;2022-09-03T06:09:55;21.55;66.35
73149;SHT30;61346;48.930;2.266;2022-09-03T06:12:20;21.58;66.46
73149;SHT30;61346;48.930;2.266;2022-09-03T06:14:46;21.58;66.44
73149;SHT30;61346;48.930;2.266;2022-09-03T06:17:11;21.65;66.47
73149;SHT30;61346;48.930;2.266;2022-09-03T06:19:37;21.74;66.50
73149;SHT30;61346;48.930;2.266;2022-09-03T06:22:05;21.76;66.46
73149;SHT30;61346;48.930;2.266;2022-09-03T06:24:55;21.78;66.46
73149;SHT30;61346;48.930;2.266;2022-09-03T06:27:25;21.82;66.41
73149;SHT30;61346;48.930;2.266;2022-09-03T06:29:55;21.83;66.34
73149;SHT30;61346;48.930;2.266;2022-09-03T06:32:22;21.81;66.31
73149;SHT30;61346;48.930;2.266;2022-09-03T06:34:50;21.78;66.34
73149;SHT30;61346;48.930;2.266;2022-09-03T06:37:16;21.76;66.30
73149;SHT30;61346;48.930;2.266;2022-09-03T06:39:46;21.75;66.25
73149;SHT30;61346;48.930;2.266;2022-09-03T06:42:25;21.72;66.29
73149;SHT30;61346;48.930;2.266;2022-09-03T06:44:54;21.71;66.32
73149;SHT30;61346;48.930;2.266;2022-09-03T06:47:21;21.69;66.40
73149;SHT30;61346;48.930;2.266;2022-09-03T06:49:47;21.72;66.54
73149;SHT30;61346;48.930;2.266;2022-09-03T06:52:12;21.74;66.48
73149;SHT30;61346;48.930;2.266;2022-09-03T06:54:37;21.78;66.60
73149;SHT30;61346;48.930;2.266;2022-09-03T06:57:05;21.83;66.59
73149;SHT30;61346;48.930;2.266;2022-09-03T06:59:30;21.90;66.66
73149;SHT30;61346;48.930;2.266;2022-09-03T07:01:56;22.00;66.56
73149;SHT30;61346;48.930;2.266;2022-09-03T07:04:24;22.06;66.52
73149;SHT30;61346;48.930;2.266;2022-09-03T07:07:12;22.14;66.37
73149;SHT30;61346;48.930;2.266;2022-09-03T07:09:43;22.17;66.18
73149;SHT30;61346;48.930;2.266;2022-09-03T07:12:09;22.18;66.07
73149;SHT30;61346;48.930;2.266;2022-09-03T07:14:36;22.16;66.01
73149;SHT30;61346;48.930;2.266;2022-09-03T07:17:01;22.12;66.12
73149;SHT30;61346;48.930;2.266;2022-09-03T07:19:27;22.10;65.96
73149;SHT30;61346;48.930;2.266;2022-09-03T07:21:52;22.06;66.10
73149;SHT30;61346;48.930;2.266;2022-09-03T07:24:18;22.04;66.18
73149;SHT30;61346;48.930;2.266;2022-09-03T07:26:46;22.06;66.16
73149;SHT30;61346;48.930;2.266;2022-09-03T07:36:28;22.02;66.22
73149;SHT30;61346;48.930;2.266;2022-09-03T07:39:33;22.02;66.15
73149;SHT30;61346;48.930;2.266;2022-09-03T07:46:54;22.09;66.19
73149;SHT30;61346;48.930;2.266;2022-09-03T07:53:00;22.10;66.15
73149;SHT30;61346;48.930;2.266;2022-09-03T07:59:26;22.17;66.07
73149;SHT30;61346;48.930;2.266;2022-09-03T08:05:28;22.31;66.14
73149;SHT30;61346;48.930;2.266;2022-09-03T08:08:55;22.40;66.13
73149;SHT30;61346;48.930;2.266;2022-09-03T08:14:36;22.58;66.07
73149;SHT30;61346;48.930;2.266;2022-09-03T08:17:01;22.68;66.05
73149;SHT30;61346;48.930;2.266;2022-09-03T08:19:27;22.82;65.86
73149;SHT30;61346;48.930;2.266;2022-09-03T08:21:52;22.86;65.54
73149;SHT30;61346;48.930;2.266;2022-09-03T08:24:18;22.88;65.54
73149;SHT30;61346;48.930;2.266;2022-09-03T08:26:46;22.91;65.44
73149;SHT30;61346;48.930;2.266;2022-09-03T08:29:11;22.96;65.38
73149;SHT30;61346;48.930;2.266;2022-09-03T08:31:38;23.00;65.35
73149;SHT30;61346;48.930;2.266;2022-09-03T08:34:05;23.06;65.35
73149;SHT30;61346;48.930;2.266;2022-09-03T08:36:33;23.12;65.21
73149;SHT30;61346;48.930;2.266;2022-09-03T08:39:01;23.13;65.15
73149;SHT30;61346;48.930;2.266;2022-09-03T08:44:29;23.23;65.01
73149;SHT30;61346;48.930;2.266;2022-09-03T08:47:00;23.28;65.00
73149;SHT30;61346;48.930;2.266;2022-09-03T08:55:24;23.43;64.64
73149;SHT30;61346;48.930;2.266;2022-09-03T09:00:22;23.49;64.56
73149;SHT30;61346;48.930;2.266;2022-09-03T09:02:51;23.53;64.50
73149;SHT30;61346;48.930;2.266;2022-09-03T09:08:24;23.78;64.47
73149;SHT30;61346;48.930;2.266;2022-09-03T09:13:52;24.20;64.21
73149;SHT30;61346;48.930;2.266;2022-09-03T09:24:58;25.12;63.04
73149;SHT30;61346;48.930;2.266;2022-09-03T09:27:26;25.29;62.79
73149;SHT30;61346;48.930;2.266;2022-09-03T09:29:58;25.49;62.39
73149;SHT30;61346;48.930;2.266;2022-09-03T09:32:26;25.69;62.28
73149;SHT30;61346;48.930;2.266;2022-09-03T09:34:51;25.85;61.89
73149;SHT30;61346;48.930;2.266;2022-09-03T09:37:18;26.00;61.53
73149;SHT30;61346;48.930;2.266;2022-09-03T09:39:55;26.11;61.38
73149;SHT30;61346;48.930;2.266;2022-09-03T09:42:22;26.22;61.07
73149;SHT30;61346;48.930;2.266;2022-09-03T09:44:48;26.28;60.46
73149;SHT30;61346;48.930;2.266;2022-09-03T09:47:24;26.32;60.44
73149;SHT30;61346;48.930;2.266;2022-09-03T09:49:53;26.43;60.38
73149;SHT30;61346;48.930;2.266;2022-09-03T09:52:20;26.61;60.04
73149;SHT30;61346;48.930;2.266;2022-09-03T09:54:51;26.87;59.16
73149;SHT30;61346;48.930;2.266;2022-09-03T10:00:15;27.18;58.08
73149;SHT30;61346;48.930;2.266;2022-09-03T10:02:49;27.27;57.82
73149;SHT30;61346;48.930;2.266;2022-09-03T10:05:24;27.34;57.65
73149;SHT30;61346;48.930;2.266;2022-09-03T10:08:01;27.42;57.81
73149;SHT30;61346;48.930;2.266;2022-09-03T10:10:29;27.45;57.59
73149;SHT30;61346;48.930;2.266;2022-09-03T10:12:58;27.50;57.37
73149;SHT30;61346;48.930;2.266;2022-09-03T10:15:56;27.52;57.66
73149;SHT30;61346;48.930;2.266;2022-09-03T10:21:17;27.41;56.84
73149;SHT30;61346;48.930;2.266;2022-09-03T10:26:22;27.14;56.72
73149;SHT30;61346;48.930;2.266;2022-09-03T10:28:57;27.11;56.68
73149;SHT30;61346;48.930;2.266;2022-09-03T10:32:01;27.14;55.96
73149;SHT30;61346;48.930;2.266;2022-09-03T10:43:24;26.45;56.60
73149;SHT30;61346;48.930;2.266;2022-09-03T10:46:18;26.47;56.60
73149;SHT30;61346;48.930;2.266;2022-09-03T11:14:38;26.88;55.97
73149;SHT30;61346;48.930;2.266;2022-09-03T11:21:35;27.02;55.59
73149;SHT30;61346;48.930;2.266;2022-09-03T11:34:11;26.72;54.75
73149;SHT30;61346;48.930;2.266;2022-09-03T11:36:43;26.56;55.04
73149;SHT30;61346;48.930;2.266;2022-09-03T11:43:25;26.33;55.51
73149;SHT30;61346;48.930;2.266;2022-09-03T11:48:52;26.24;55.63
73149;SHT30;61346;48.930;2.266;2022-09-03T12:28:28;28.62;51.49
73149;SHT30;61346;48.930;2.266;2022-09-03T12:31:05;28.44;51.75
73149;SHT30;61346;48.930;2.266;2022-09-03T12:34:01;28.37;52.32
73149;SHT30;61346;48.930;2.266;2022-09-03T12:43:55;28.07;51.90
73149;SHT30;61346;48.930;2.266;2022-09-03T14:07:10;27.46;52.06
73149;SHT30;61346;48.930;2.266;2022-09-03T14:39:38;28.15;51.08
73149;SHT30;61346;48.930;2.266;2022-09-03T14:45:12;28.11;50.58
73149;SHT30;61346;48.930;2.266;2022-09-03T15:05:04;28.04;50.80
73149;SHT30;61346;48.930;2.266;2022-09-03T15:10:58;28.31;50.48
73149;SHT30;61346;48.930;2.266;2022-09-03T15:13:41;28.38;50.47
73149;SHT30;61346;48.930;2.266;2022-09-03T15:16:42;28.58;50.07
73149;SHT30;61346;48.930;2.266;2022-09-03T15:30:16;29.51;49.57
73149;SHT30;61346;48.930;2.266;2022-09-03T17:56:39;26.64;46.90
73149;SHT30;61346;48.930;2.266;2022-09-03T17:59:26;26.49;47.17
73149;SHT30;61346;48.930;2.266;2022-09-03T19:15:41;24.17;51.01
73149;SHT30;61346;48.930;2.266;2022-09-03T19:22:19;24.01;51.31
73149;SHT30;61346;48.930;2.266;2022-09-03T19:31:56;23.81;51.79
73149;SHT30;61346;48.930;2.266;2022-09-03T19:35:12;23.75;51.95
73149;SHT30;61346;48.930;2.266;2022-09-03T19:38:15;23.68;52.07
73149;SHT30;61346;48.930;2.266;2022-09-03T19:41:30;23.58;52.25
73149;SHT30;61346;48.930;2.266;2022-09-03T19:51:20;23.39;52.73
73149;SHT30;61346;48.930;2.266;2022-09-03T19:54:07;23.34;52.85
73149;SHT30;61346;48.930;2.266;2022-09-03T19:56:55;23.27;52.95
73149;SHT30;61346;48.930;2.266;2022-09-03T19:59:44;23.24;53.07
73149;SHT30;61346;48.930;2.266;2022-09-03T20:02:33;23.17;53.18
73149;SHT30;61346;48.930;2.266;2022-09-03T20:05:21;23.14;53.30
73149;SHT30;61346;48.930;2.266;2022-09-03T20:08:08;23.10;53.41
73149;SHT30;61346;48.930;2.266;2022-09-03T20:10:55;23.07;53.48
73149;SHT30;61346;48.930;2.266;2022-09-03T20:13:23;23.06;53.58
73149;SHT30;61346;48.930;2.266;2022-09-03T20:21:39;22.93;53.93
73149;SHT30;61346;48.930;2.266;2022-09-03T20:24:26;22.91;54.01
73149;SHT30;61346;48.930;2.266;2022-09-03T20:27:19;22.86;54.17
73149;SHT30;61346;48.930;2.266;2022-09-03T20:30:06;22.84;54.28
73149;SHT30;61346;48.930;2.266;2022-09-03T20:50:01;22.67;55.03
73149;SHT30;61346;48.930;2.266;2022-09-03T20:52:43;22.61;55.08
73149;SHT30;61346;48.930;2.266;2022-09-03T20:58:28;22.57;55.38
73149;SHT30;61346;48.930;2.266;2022-09-03T21:01:02;22.52;55.52
73149;SHT30;61346;48.930;2.266;2022-09-03T21:06:08;22.51;55.76
73149;SHT30;61346;48.930;2.266;2022-09-03T21:11:31;22.50;55.84
73149;SHT30;61346;48.930;2.266;2022-09-03T21:19:54;22.45;56.16
73149;SHT30;61346;48.930;2.266;2022-09-03T21:28:37;22.44;56.49
73149;SHT30;61346;48.930;2.266;2022-09-03T21:31:33;22.43;56.59
73149;SHT30;61346;48.930;2.266;2022-09-03T21:37:54;22.38;56.78
73149;SHT30;61346;48.930;2.266;2022-09-03T21:40:34;22.36;56.91
73149;SHT30;61346;48.930;2.266;2022-09-03T21:43:28;22.36;56.96
73149;SHT30;61346;48.930;2.266;2022-09-03T21:57:18;22.20;57.41
73149;SHT30;61346;48.930;2.266;2022-09-03T22:14:29;22.27;57.91
73149;SHT30;61346;48.930;2.266;2022-09-03T22:18:02;22.34;57.85
73149;SHT30;61346;48.930;2.266;2022-09-03T22:24:47;22.31;57.71
73149;SHT30;61346;48.930;2.266;2022-09-03T22:27:41;22.25;57.67
73149;SHT30;61346;48.930;2.266;2022-09-03T22:30:24;22.23;57.75
73149;SHT30;61346;48.930;2.266;2022-09-03T22:39:33;22.10;58.02
73149;SHT30;61346;48.930;2.266;2022-09-03T22:45:56;22.07;58.14
73149;SHT30;61346;48.930;2.266;2022-09-03T22:55:26;21.99;58.29
73149;SHT30;61346;48.930;2.266;2022-09-03T23:01:26;21.93;58.48
73149;SHT30;61346;48.930;2.266;2022-09-03T23:04:30;21.92;58.54
73149;SHT30;61346;48.930;2.266;2022-09-03T23:07:24;21.92;58.57
73149;SHT30;61346;48.930;2.266;2022-09-03T23:10:16;21.90;58.66
73149;SHT30;61346;48.930;2.266;2022-09-03T23:16:03;21.94;58.83
73149;SHT30;61346;48.930;2.266;2022-09-03T23:18:52;22.02;58.82
73149;SHT30;61346;48.930;2.266;2022-09-03T23:21:38;22.04;58.83
73149;SHT30;61346;48.930;2.266;2022-09-03T23:24:17;22.04;58.75
73149;SHT30;61346;48.930;2.266;2022-09-03T23:27:12;22.02;58.77
73149;SHT30;61346;48.930;2.266;2022-09-03T23:30:17;21.97;58.82
73149;SHT30;61346;48.930;2.266;2022-09-03T23:33:00;21.94;58.86
73149;SHT30;61346;48.930;2.266;2022-09-03T23:35:57;21.89;58.82
73149;SHT30;61346;48.930;2.266;2022-09-03T23:38:53;21.88;58.90
73149;SHT30;61346;48.930;2.266;2022-09-03T23:47:42;21.72;59.08
